Riverside, CA (92501)

5:29 PM PDT on September 03, 2015 (GMT -0700)
Wood Streets | | Change Station
CLOSE
Current Station
Personal Weather Station
Location: Riverside, CA
Elevation: 833 ft
Nearby Weather Stations

Elev 833 ft 33.97 °N, 117.39 °W | Updated 5 minutes ago

Clear
Clear
87.3 °F
Feels Like 87 °F
N
4.2
Wind Variable Wind from NE

Today
High -- | Low -- °F
--% Chance of Precip.
Yesterday
High -- | Low -- °F
Precip. -- in
6:24 AM 7:12 PM
Waning Gibbous, 65% visible
Pressure 29.75 in
Visibility 10.0 miles
Clouds Clear
Heat Index 87 °F
Dew Point 59 °F
Humidity 39%
Rainfall 0.02 in
Snow Depth Not available.
UV 3 out of 12
Pollen 7.80 out of 12
Air Quality Not available.
Flu Activity Not available.
METAR KRAL 032353Z AUTO 27009G17KT 10SM CLR 28/13 A2980 RMK AO2 SLP075 T02830128 10300 20206 56023
Pressure 29.75 in
Visibility 10.0 miles
Clouds Clear
Heat Index 87 °F
Dew Point 59 °F
Humidity 39%
Rainfall 0.02 in
Snow Depth Not available.
UV 3 out of 12
Pollen 7.80 out of 12
Air Quality Not available.
Flu Activity Not available.
METAR KRAL 032353Z AUTO 27009G17KT 10SM CLR 28/13 A2980 RMK AO2 SLP075 T02830128 10300 20206 56023

10-Day Weather Forecast

×

Almanac

Astronomy

Sep. 03, 2015 Rise Set
Actual Time
Civil Twilight
Nautical Twilight
Astronomical Twilight
Moon
Length of Visible Light
Length of Day
Tomorrow will be .
, % of the Moon is Illuminated

Today's Extremes

State Highs State Lows

Community

WunderPhotos

Upload Photos

1,852,073 photos uploaded!

WunderBlogs® & News

Nearby

Air Quality

  Air Quality AQ Index Pollutant
Not available.

Snow Depth

Station Depth Elevation

Earthquake Activity

City Distance Mag. Time & Date
Minimum magnitude displayed is 2.5.

Coastal Water Temperatures

Place Temperature

Stations

Nearby Weather Stations

Station Location Temp. Windchill Dew Point Humidity Wind Precip. Elev Updated Type